sensor_id;sensor_type;location;lat;lon;timestamp;pressure;altitude;pressure_sealevel;temperature;humidity
9277;BME280;4676;42.678;23.244;2023-06-22T00:00:46;94519.16;;;17.82;100.00
9277;BME280;4676;42.678;23.244;2023-06-22T00:03:13;94527.22;;;17.76;100.00
9277;BME280;4676;42.678;23.244;2023-06-22T00:05:40;94524.34;;;17.81;100.00
9277;BME280;4676;42.678;23.244;2023-06-22T00:08:07;94511.91;;;17.75;100.00
9277;BME280;4676;42.678;23.244;2023-06-22T00:10:33;94507.44;;;17.78;100.00
9277;BME280;4676;42.678;23.244;2023-06-22T00:13:00;94481.88;;;17.63;100.00
9277;BME280;4676;42.678;23.244;2023-06-22T00:15:27;94519.53;;;17.76;100.00
9277;BME280;4676;42.678;23.244;2023-06-22T00:17:55;94499.03;;;17.76;100.00
9277;BME280;4676;42.678;23.244;2023-06-22T00:20:24;94493.41;;;17.70;100.00
9277;BME280;4676;42.678;23.244;2023-06-22T00:22:53;94489.50;;;17.64;100.00
9277;BME280;4676;42.678;23.244;2023-06-22T00:25:20;94493.28;;;17.59;100.00
9277;BME280;4676;42.678;23.244;2023-06-22T00:27:47;94496.81;;;17.56;100.00
9277;BME280;4676;42.678;23.244;2023-06-22T00:30:14;94486.31;;;17.61;100.00
9277;BME280;4676;42.678;23.244;2023-06-22T00:32:41;94483.53;;;17.64;100.00
9277;BME280;4676;42.678;23.244;2023-06-22T00:35:09;94493.91;;;17.62;100.00
9277;BME280;4676;42.678;23.244;2023-06-22T00:37:37;94496.56;;;17.61;100.00
9277;BME280;4676;42.678;23.244;2023-06-22T00:40:07;94480.25;;;17.62;100.00
9277;BME280;4676;42.678;23.244;2023-06-22T00:42:34;94482.09;;;17.60;100.00
9277;BME280;4676;42.678;23.244;2023-06-22T00:45:00;94493.09;;;17.62;100.00
9277;BME280;4676;42.678;23.244;2023-06-22T00:47:27;94493.44;;;17.56;100.00
9277;BME280;4676;42.678;23.244;2023-06-22T00:49:54;94484.09;;;17.55;100.00
9277;BME280;4676;42.678;23.244;2023-06-22T00:52:23;94491.69;;;17.56;100.00
9277;BME280;4676;42.678;23.244;2023-06-22T00:54:54;94484.75;;;17.44;100.00
9277;BME280;4676;42.678;23.244;2023-06-22T00:57:23;94481.78;;;17.50;100.00
9277;BME280;4676;42.678;23.244;2023-06-22T00:59:53;94485.56;;;17.44;100.00
9277;BME280;4676;42.678;23.244;2023-06-22T01:02:20;94491.53;;;17.45;100.00
9277;BME280;4676;42.678;23.244;2023-06-22T01:04:47;94501.22;;;17.40;100.00
9277;BME280;4676;42.678;23.244;2023-06-22T01:07:20;94502.03;;;17.40;100.00
9277;BME280;4676;42.678;23.244;2023-06-22T01:09:54;94499.03;;;17.34;100.00
9277;BME280;4676;42.678;23.244;2023-06-22T01:12:26;94502.75;;;17.28;100.00
9277;BME280;4676;42.678;23.244;2023-06-22T01:15:08;94496.78;;;17.14;100.00
9277;BME280;4676;42.678;23.244;2023-06-22T01:17:39;94505.41;;;17.13;100.00
9277;BME280;4676;42.678;23.244;2023-06-22T01:20:08;94507.41;;;17.08;100.00
9277;BME280;4676;42.678;23.244;2023-06-22T01:22:46;94503.94;;;17.09;100.00
9277;BME280;4676;42.678;23.244;2023-06-22T01:25:28;94496.50;;;17.04;100.00
9277;BME280;4676;42.678;23.244;2023-06-22T01:28:01;94490.03;;;17.13;100.00
9277;BME280;4676;42.678;23.244;2023-06-22T01:30:31;94482.63;;;17.08;100.00
9277;BME280;4676;42.678;23.244;2023-06-22T01:33:01;94508.50;;;17.18;100.00
9277;BME280;4676;42.678;23.244;2023-06-22T01:35:30;94504.03;;;17.21;100.00
9277;BME280;4676;42.678;23.244;2023-06-22T01:37:58;94513.75;;;17.16;100.00
9277;BME280;4676;42.678;23.244;2023-06-22T01:40:25;94507.22;;;17.11;100.00
9277;BME280;4676;42.678;23.244;2023-06-22T01:42:53;94518.94;;;17.15;100.00
9277;BME280;4676;42.678;23.244;2023-06-22T01:45:20;94502.84;;;17.13;100.00
9277;BME280;4676;42.678;23.244;2023-06-22T01:47:49;94507.97;;;17.13;100.00
9277;BME280;4676;42.678;23.244;2023-06-22T01:50:16;94508.50;;;17.04;100.00
9277;BME280;4676;42.678;23.244;2023-06-22T01:52:43;94512.88;;;17.02;100.00
9277;BME280;4676;42.678;23.244;2023-06-22T01:55:09;94511.22;;;17.01;100.00
9277;BME280;4676;42.678;23.244;2023-06-22T01:57:36;94518.09;;;17.00;100.00
9277;BME280;4676;42.678;23.244;2023-06-22T02:00:04;94517.72;;;16.92;100.00
9277;BME280;4676;42.678;23.244;2023-06-22T02:02:39;94527.16;;;16.91;100.00
9277;BME280;4676;42.678;23.244;2023-06-22T02:05:12;94536.84;;;17.01;100.00
9277;BME280;4676;42.678;23.244;2023-06-22T02:07:47;94540.78;;;16.92;100.00
9277;BME280;4676;42.678;23.244;2023-06-22T02:10:16;94537.28;;;16.93;100.00
9277;BME280;4676;42.678;23.244;2023-06-22T02:12:47;94538.28;;;16.90;100.00
9277;BME280;4676;42.678;23.244;2023-06-22T02:15:15;94528.22;;;16.87;100.00
9277;BME280;4676;42.678;23.244;2023-06-22T02:17:42;94524.19;;;16.83;100.00
9277;BME280;4676;42.678;23.244;2023-06-22T02:20:13;94526.03;;;16.81;100.00
9277;BME280;4676;42.678;23.244;2023-06-22T02:22:40;94527.09;;;16.77;100.00
9277;BME280;4676;42.678;23.244;2023-06-22T02:25:07;94520.06;;;16.81;100.00
9277;BME280;4676;42.678;23.244;2023-06-22T02:27:34;94519.25;;;16.80;100.00
9277;BME280;4676;42.678;23.244;2023-06-22T02:30:01;94518.25;;;16.83;100.00
9277;BME280;4676;42.678;23.244;2023-06-22T02:32:28;94516.69;;;16.80;100.00
9277;BME280;4676;42.678;23.244;2023-06-22T02:34:55;94522.53;;;16.82;100.00
9277;BME280;4676;42.678;23.244;2023-06-22T02:37:23;94517.22;;;16.85;100.00
9277;BME280;4676;42.678;23.244;2023-06-22T02:39:50;94518.72;;;16.89;100.00
9277;BME280;4676;42.678;23.244;2023-06-22T02:42:17;94514.84;;;16.82;100.00
9277;BME280;4676;42.678;23.244;2023-06-22T02:44:46;94513.13;;;16.83;100.00
9277;BME280;4676;42.678;23.244;2023-06-22T02:47:12;94520.97;;;16.80;100.00
9277;BME280;4676;42.678;23.244;2023-06-22T02:49:39;94514.56;;;16.73;100.00
9277;BME280;4676;42.678;23.244;2023-06-22T02:52:06;94515.47;;;16.72;100.00
9277;BME280;4676;42.678;23.244;2023-06-22T02:54:34;94515.75;;;16.67;100.00
9277;BME280;4676;42.678;23.244;2023-06-22T02:57:01;94510.97;;;16.61;100.00
9277;BME280;4676;42.678;23.244;2023-06-22T02:59:28;94515.34;;;16.59;100.00
9277;BME280;4676;42.678;23.244;2023-06-22T03:01:55;94516.06;;;16.61;100.00
9277;BME280;4676;42.678;23.244;2023-06-22T03:04:22;94507.31;;;16.65;100.00
9277;BME280;4676;42.678;23.244;2023-06-22T03:06:48;94511.72;;;16.63;100.00
9277;BME280;4676;42.678;23.244;2023-06-22T03:09:16;94522.66;;;16.65;100.00
9277;BME280;4676;42.678;23.244;2023-06-22T03:11:44;94527.06;;;16.63;100.00
9277;BME280;4676;42.678;23.244;2023-06-22T03:14:11;94519.63;;;16.59;100.00
9277;BME280;4676;42.678;23.244;2023-06-22T03:16:38;94526.41;;;16.60;100.00
9277;BME280;4676;42.678;23.244;2023-06-22T03:19:06;94535.47;;;16.65;100.00
9277;BME280;4676;42.678;23.244;2023-06-22T03:21:32;94538.69;;;16.69;100.00
9277;BME280;4676;42.678;23.244;2023-06-22T03:23:59;94542.66;;;16.74;100.00
9277;BME280;4676;42.678;23.244;2023-06-22T03:26:26;94539.91;;;16.77;100.00
9277;BME280;4676;42.678;23.244;2023-06-22T03:28:54;94550.97;;;16.78;100.00
9277;BME280;4676;42.678;23.244;2023-06-22T03:31:21;94545.50;;;16.84;100.00
9277;BME280;4676;42.678;23.244;2023-06-22T03:33:47;94550.63;;;16.84;100.00
9277;BME280;4676;42.678;23.244;2023-06-22T03:36:15;94552.28;;;16.85;100.00
9277;BME280;4676;42.678;23.244;2023-06-22T03:38:44;94554.47;;;16.91;100.00
9277;BME280;4676;42.678;23.244;2023-06-22T03:41:11;94562.56;;;16.99;100.00
9277;BME280;4676;42.678;23.244;2023-06-22T03:43:38;94562.63;;;16.97;100.00
9277;BME280;4676;42.678;23.244;2023-06-22T03:46:06;94558.97;;;17.02;100.00
9277;BME280;4676;42.678;23.244;2023-06-22T03:48:32;94562.59;;;17.13;100.00
9277;BME280;4676;42.678;23.244;2023-06-22T03:50:59;94543.03;;;16.96;100.00
9277;BME280;4676;42.678;23.244;2023-06-22T03:53:26;94576.03;;;17.17;100.00
9277;BME280;4676;42.678;23.244;2023-06-22T03:55:53;94571.06;;;17.14;100.00
9277;BME280;4676;42.678;23.244;2023-06-22T03:58:20;94572.38;;;17.21;100.00
9277;BME280;4676;42.678;23.244;2023-06-22T04:00:47;94567.88;;;17.24;100.00
9277;BME280;4676;42.678;23.244;2023-06-22T04:03:15;94566.34;;;17.22;100.00
9277;BME280;4676;42.678;23.244;2023-06-22T04:05:43;94567.88;;;17.24;100.00
9277;BME280;4676;42.678;23.244;2023-06-22T04:08:11;94544.66;;;17.13;100.00
9277;BME280;4676;42.678;23.244;2023-06-22T04:10:38;94554.94;;;17.27;100.00
9277;BME280;4676;42.678;23.244;2023-06-22T04:13:05;94548.88;;;17.28;100.00
9277;BME280;4676;42.678;23.244;2023-06-22T04:15:32;94553.66;;;17.34;100.00
9277;BME280;4676;42.678;23.244;2023-06-22T04:17:58;94543.03;;;17.40;100.00
9277;BME280;4676;42.678;23.244;2023-06-22T04:20:27;94543.31;;;17.50;100.00
9277;BME280;4676;42.678;23.244;2023-06-22T04:22:54;94536.19;;;17.55;100.00
9277;BME280;4676;42.678;23.244;2023-06-22T04:25:21;94534.44;;;17.56;100.00
9277;BME280;4676;42.678;23.244;2023-06-22T04:27:48;94521.34;;;17.60;100.00
9277;BME280;4676;42.678;23.244;2023-06-22T04:30:16;94535.72;;;17.77;100.00
9277;BME280;4676;42.678;23.244;2023-06-22T04:32:43;94548.63;;;17.89;100.00
9277;BME280;4676;42.678;23.244;2023-06-22T04:35:10;94545.94;;;18.05;100.00
9277;BME280;4676;42.678;23.244;2023-06-22T04:37:38;94542.81;;;18.14;100.00
9277;BME280;4676;42.678;23.244;2023-06-22T04:40:06;94538.75;;;18.24;100.00
9277;BME280;4676;42.678;23.244;2023-06-22T04:42:34;94543.00;;;18.38;100.00
9277;BME280;4676;42.678;23.244;2023-06-22T04:45:02;94559.41;;;18.50;100.00
9277;BME280;4676;42.678;23.244;2023-06-22T04:47:29;94565.41;;;18.63;100.00
9277;BME280;4676;42.678;23.244;2023-06-22T04:49:56;94570.91;;;18.71;100.00
9277;BME280;4676;42.678;23.244;2023-06-22T04:52:22;94567.66;;;18.81;100.00
9277;BME280;4676;42.678;23.244;2023-06-22T04:54:51;94574.25;;;18.85;100.00
9277;BME280;4676;42.678;23.244;2023-06-22T04:57:21;94560.03;;;18.80;100.00
9277;BME280;4676;42.678;23.244;2023-06-22T04:59:58;94576.00;;;18.98;100.00
9277;BME280;4676;42.678;23.244;2023-06-22T05:02:41;94570.28;;;19.19;100.00
9277;BME280;4676;42.678;23.244;2023-06-22T05:05:08;94573.28;;;19.26;100.00
9277;BME280;4676;42.678;23.244;2023-06-22T05:07:39;94566.72;;;19.34;100.00
9277;BME280;4676;42.678;23.244;2023-06-22T05:10:10;94570.03;;;19.49;100.00
9277;BME280;4676;42.678;23.244;2023-06-22T05:12:38;94568.91;;;19.66;100.00
9277;BME280;4676;42.678;23.244;2023-06-22T05:15:05;94559.00;;;19.85;100.00
9277;BME280;4676;42.678;23.244;2023-06-22T05:17:33;94566.28;;;20.04;100.00
9277;BME280;4676;42.678;23.244;2023-06-22T05:20:00;94567.44;;;20.23;100.00
9277;BME280;4676;42.678;23.244;2023-06-22T05:22:27;94570.09;;;20.47;100.00
9277;BME280;4676;42.678;23.244;2023-06-22T05:24:53;94578.06;;;20.68;100.00
9277;BME280;4676;42.678;23.244;2023-06-22T05:27:21;94577.97;;;20.80;100.00
9277;BME280;4676;42.678;23.244;2023-06-22T05:29:48;94584.28;;;21.00;100.00
9277;BME280;4676;42.678;23.244;2023-06-22T05:32:15;94587.88;;;21.10;100.00
9277;BME280;4676;42.678;23.244;2023-06-22T05:34:41;94593.44;;;21.28;100.00
9277;BME280;4676;42.678;23.244;2023-06-22T05:37:08;94595.34;;;21.48;100.00
9277;BME280;4676;42.678;23.244;2023-06-22T05:39:36;94601.00;;;21.64;100.00
9277;BME280;4676;42.678;23.244;2023-06-22T05:42:04;94598.22;;;21.67;100.00
9277;BME280;4676;42.678;23.244;2023-06-22T05:44:32;94610.41;;;21.76;100.00
9277;BME280;4676;42.678;23.244;2023-06-22T05:47:00;94609.25;;;21.80;100.00
9277;BME280;4676;42.678;23.244;2023-06-22T05:49:26;94613.50;;;21.92;100.00
9277;BME280;4676;42.678;23.244;2023-06-22T05:51:55;94618.22;;;21.99;100.00
9277;BME280;4676;42.678;23.244;2023-06-22T05:54:22;94615.75;;;22.19;100.00
9277;BME280;4676;42.678;23.244;2023-06-22T05:56:49;94624.28;;;22.31;100.00
9277;BME280;4676;42.678;23.244;2023-06-22T05:59:16;94619.38;;;22.39;100.00
9277;BME280;4676;42.678;23.244;2023-06-22T06:01:44;94619.59;;;22.58;100.00
9277;BME280;4676;42.678;23.244;2023-06-22T06:04:15;94613.84;;;22.55;100.00
9277;BME280;4676;42.678;23.244;2023-06-22T06:06:41;94603.59;;;22.64;100.00
9277;BME280;4676;42.678;23.244;2023-06-22T06:09:08;94612.75;;;22.79;100.00
9277;BME280;4676;42.678;23.244;2023-06-22T06:11:36;94606.72;;;22.90;100.00
9277;BME280;4676;42.678;23.244;2023-06-22T06:14:03;94601.56;;;23.22;100.00
9277;BME280;4676;42.678;23.244;2023-06-22T06:16:30;94604.88;;;23.33;100.00
9277;BME280;4676;42.678;23.244;2023-06-22T06:18:58;94602.47;;;23.53;100.00
9277;BME280;4676;42.678;23.244;2023-06-22T06:21:25;94598.19;;;23.63;100.00
9277;BME280;4676;42.678;23.244;2023-06-22T06:23:52;94597.19;;;23.75;100.00
9277;BME280;4676;42.678;23.244;2023-06-22T06:26:19;94595.34;;;23.96;100.00
9277;BME280;4676;42.678;23.244;2023-06-22T06:28:52;94601.75;;;24.13;100.00
9277;BME280;4676;42.678;23.244;2023-06-22T06:31:18;94598.50;;;24.20;100.00
9277;BME280;4676;42.678;23.244;2023-06-22T06:33:45;94595.16;;;24.39;100.00
9277;BME280;4676;42.678;23.244;2023-06-22T06:36:13;94595.22;;;24.68;100.00
9277;BME280;4676;42.678;23.244;2023-06-22T06:38:40;94598.94;;;24.84;100.00
9277;BME280;4676;42.678;23.244;2023-06-22T06:41:07;94597.19;;;24.95;100.00
9277;BME280;4676;42.678;23.244;2023-06-22T06:43:34;94591.63;;;25.18;100.00
9277;BME280;4676;42.678;23.244;2023-06-22T06:46:00;94591.47;;;25.39;100.00
9277;BME280;4676;42.678;23.244;2023-06-22T06:48:28;94592.69;;;25.64;100.00
9277;BME280;4676;42.678;23.244;2023-06-22T06:50:55;94588.22;;;25.93;100.00
9277;BME280;4676;42.678;23.244;2023-06-22T06:53:23;94584.59;;;26.23;97.00
9277;BME280;4676;42.678;23.244;2023-06-22T06:55:49;94583.72;;;26.32;94.07
9277;BME280;4676;42.678;23.244;2023-06-22T06:58:16;94579.34;;;26.42;94.87
9277;BME280;4676;42.678;23.244;2023-06-22T07:00:43;94580.28;;;26.41;96.93
9277;BME280;4676;42.678;23.244;2023-06-22T07:03:10;94572.63;;;26.40;97.34
9277;BME280;4676;42.678;23.244;2023-06-22T07:05:36;94578.22;;;26.45;87.90
9277;BME280;4676;42.678;23.244;2023-06-22T07:08:03;94580.34;;;26.59;99.77
9277;BME280;4676;42.678;23.244;2023-06-22T07:10:31;94582.28;;;26.74;93.56
9277;BME280;4676;42.678;23.244;2023-06-22T07:12:58;94582.72;;;26.70;89.40
9277;BME280;4676;42.678;23.244;2023-06-22T07:15:25;94580.25;;;26.68;93.05
9277;BME280;4676;42.678;23.244;2023-06-22T07:17:51;94587.25;;;26.68;88.44
9277;BME280;4676;42.678;23.244;2023-06-22T07:20:18;94588.78;;;26.61;87.23
9277;BME280;4676;42.678;23.244;2023-06-22T07:22:45;94589.28;;;26.47;91.99
9277;BME280;4676;42.678;23.244;2023-06-22T07:25:11;94580.59;;;26.38;87.67
9277;BME280;4676;42.678;23.244;2023-06-22T07:27:44;94588.19;;;26.49;97.15
9277;BME280;4676;42.678;23.244;2023-06-22T07:30:12;94588.09;;;26.41;88.30
9277;BME280;4676;42.678;23.244;2023-06-22T07:32:39;94592.59;;;26.39;89.65
9277;BME280;4676;42.678;23.244;2023-06-22T07:35:06;94587.38;;;26.49;94.98
9277;BME280;4676;42.678;23.244;2023-06-22T07:37:33;94597.31;;;26.53;87.81
9277;BME280;4676;42.678;23.244;2023-06-22T07:40:00;94597.38;;;26.44;88.69
9277;BME280;4676;42.678;23.244;2023-06-22T07:42:29;94600.19;;;26.23;93.04
9277;BME280;4676;42.678;23.244;2023-06-22T07:44:59;94597.38;;;26.07;94.64
9277;BME280;4676;42.678;23.244;2023-06-22T07:47:27;94597.09;;;26.10;100.00
9277;BME280;4676;42.678;23.244;2023-06-22T07:49:54;94600.03;;;26.34;100.00
9277;BME280;4676;42.678;23.244;2023-06-22T07:52:23;94605.75;;;26.38;96.86
9277;BME280;4676;42.678;23.244;2023-06-22T07:54:50;94599.63;;;26.29;97.03
9277;BME280;4676;42.678;23.244;2023-06-22T07:57:16;94598.28;;;26.15;96.09
9277;BME280;4676;42.678;23.244;2023-06-22T07:59:44;94589.94;;;26.12;94.45
9277;BME280;4676;42.678;23.244;2023-06-22T08:02:12;94589.03;;;26.03;94.76
9277;BME280;4676;42.678;23.244;2023-06-22T08:04:39;94591.03;;;25.72;100.00
9277;BME280;4676;42.678;23.244;2023-06-22T08:07:06;94586.00;;;25.42;100.00
9277;BME280;4676;42.678;23.244;2023-06-22T08:09:33;94575.22;;;25.47;100.00
9277;BME280;4676;42.678;23.244;2023-06-22T08:12:00;94585.31;;;25.59;100.00
9277;BME280;4676;42.678;23.244;2023-06-22T08:14:29;94576.44;;;25.52;100.00
9277;BME280;4676;42.678;23.244;2023-06-22T08:16:56;94581.78;;;25.60;100.00
9277;BME280;4676;42.678;23.244;2023-06-22T08:19:24;94580.13;;;25.59;100.00
9277;BME280;4676;42.678;23.244;2023-06-22T08:21:51;94570.69;;;25.68;100.00
9277;BME280;4676;42.678;23.244;2023-06-22T08:24:17;94576.53;;;25.79;97.91
9277;BME280;4676;42.678;23.244;2023-06-22T08:26:44;94566.50;;;25.94;100.00
9277;BME280;4676;42.678;23.244;2023-06-22T08:29:11;94564.94;;;26.20;100.00
9277;BME280;4676;42.678;23.244;2023-06-22T08:31:37;94564.50;;;26.52;100.00
9277;BME280;4676;42.678;23.244;2023-06-22T08:34:04;94559.81;;;26.56;89.93
9277;BME280;4676;42.678;23.244;2023-06-22T08:36:32;94548.09;;;26.69;98.12
9277;BME280;4676;42.678;23.244;2023-06-22T08:39:06;94572.69;;;26.85;96.59
9277;BME280;4676;42.678;23.244;2023-06-22T08:41:33;94571.69;;;27.03;98.30
9277;BME280;4676;42.678;23.244;2023-06-22T08:44:00;94570.44;;;27.25;97.18
9277;BME280;4676;42.678;23.244;2023-06-22T08:46:26;94575.84;;;27.31;85.83
9277;BME280;4676;42.678;23.244;2023-06-22T08:48:59;94570.88;;;27.20;85.68
9277;BME280;4676;42.678;23.244;2023-06-22T08:51:26;94565.53;;;27.22;90.11
9277;BME280;4676;42.678;23.244;2023-06-22T08:53:55;94563.97;;;27.29;91.45
9277;BME280;4676;42.678;23.244;2023-06-22T08:56:22;94567.94;;;27.41;89.61
9277;BME280;4676;42.678;23.244;2023-06-22T08:58:48;94560.31;;;27.57;83.34
9277;BME280;4676;42.678;23.244;2023-06-22T09:01:15;94558.03;;;27.62;84.74
9277;BME280;4676;42.678;23.244;2023-06-22T09:03:42;94552.25;;;27.68;79.32
9277;BME280;4676;42.678;23.244;2023-06-22T09:06:08;94547.38;;;27.73;79.80
9277;BME280;4676;42.678;23.244;2023-06-22T09:08:35;94554.88;;;27.76;80.06
9277;BME280;4676;42.678;23.244;2023-06-22T09:11:03;94559.44;;;27.74;73.02
9277;BME280;4676;42.678;23.244;2023-06-22T09:13:30;94561.56;;;27.53;68.12
9277;BME280;4676;42.678;23.244;2023-06-22T09:15:57;94562.09;;;27.39;67.08
9277;BME280;4676;42.678;23.244;2023-06-22T09:18:25;94554.59;;;27.36;74.82
9277;BME280;4676;42.678;23.244;2023-06-22T09:20:52;94549.69;;;27.51;89.67
9277;BME280;4676;42.678;23.244;2023-06-22T09:23:18;94554.47;;;27.63;68.47
9277;BME280;4676;42.678;23.244;2023-06-22T09:25:45;94555.81;;;27.67;73.05
9277;BME280;4676;42.678;23.244;2023-06-22T09:28:14;94561.72;;;27.77;68.81
9277;BME280;4676;42.678;23.244;2023-06-22T09:30:42;94567.41;;;27.47;62.81
9277;BME280;4676;42.678;23.244;2023-06-22T09:33:09;94571.97;;;27.36;66.05
9277;BME280;4676;42.678;23.244;2023-06-22T09:35:36;94569.31;;;27.27;63.09
9277;BME280;4676;42.678;23.244;2023-06-22T09:38:03;94568.22;;;27.30;69.17
9277;BME280;4676;42.678;23.244;2023-06-22T09:40:30;94575.94;;;27.57;69.55
9277;BME280;4676;42.678;23.244;2023-06-22T09:42:58;94566.59;;;27.72;66.81
9277;BME280;4676;42.678;23.244;2023-06-22T09:45:26;94562.88;;;27.75;66.30
9277;BME280;4676;42.678;23.244;2023-06-22T09:47:52;94561.63;;;27.87;70.30
9277;BME280;4676;42.678;23.244;2023-06-22T09:50:19;94564.09;;;27.89;62.23
9277;BME280;4676;42.678;23.244;2023-06-22T09:52:46;94557.94;;;27.98;66.58
9277;BME280;4676;42.678;23.244;2023-06-22T09:55:16;94555.38;;;28.06;63.59
9277;BME280;4676;42.678;23.244;2023-06-22T09:57:42;94549.72;;;28.10;70.26
9277;BME280;4676;42.678;23.244;2023-06-22T10:00:10;94550.06;;;28.07;66.35
9277;BME280;4676;42.678;23.244;2023-06-22T10:02:40;94551.22;;;28.13;63.02
9277;BME280;4676;42.678;23.244;2023-06-22T10:05:07;94551.34;;;28.11;61.43
9277;BME280;4676;42.678;23.244;2023-06-22T10:07:34;94556.81;;;28.00;60.24
9277;BME280;4676;42.678;23.244;2023-06-22T10:10:05;94553.41;;;28.00;58.10
9277;BME280;4676;42.678;23.244;2023-06-22T10:12:32;94544.88;;;27.90;64.46
9277;BME280;4676;42.678;23.244;2023-06-22T10:14:59;94547.50;;;27.98;58.90
9277;BME280;4676;42.678;23.244;2023-06-22T10:17:26;94545.53;;;27.92;61.52
9277;BME280;4676;42.678;23.244;2023-06-22T10:19:54;94540.50;;;27.98;63.88
9277;BME280;4676;42.678;23.244;2023-06-22T10:22:21;94539.53;;;27.99;66.31
9277;BME280;4676;42.678;23.244;2023-06-22T10:24:47;94540.41;;;28.08;58.44
9277;BME280;4676;42.678;23.244;2023-06-22T10:27:14;94545.63;;;28.08;62.28
9277;BME280;4676;42.678;23.244;2023-06-22T10:29:41;94548.25;;;28.08;58.38
9277;BME280;4676;42.678;23.244;2023-06-22T10:32:08;94540.38;;;28.00;54.12
9277;BME280;4676;42.678;23.244;2023-06-22T10:34:35;94538.22;;;27.95;55.75
9277;BME280;4676;42.678;23.244;2023-06-22T10:37:03;94542.34;;;28.06;55.08
9277;BME280;4676;42.678;23.244;2023-06-22T10:39:30;94538.31;;;28.11;57.91
9277;BME280;4676;42.678;23.244;2023-06-22T10:41:57;94535.50;;;28.05;59.56
9277;BME280;4676;42.678;23.244;2023-06-22T10:44:23;94524.09;;;28.06;63.07
9277;BME280;4676;42.678;23.244;2023-06-22T10:46:50;94525.78;;;28.07;59.04
9277;BME280;4676;42.678;23.244;2023-06-22T10:49:17;94516.72;;;28.27;62.78
9277;BME280;4676;42.678;23.244;2023-06-22T10:51:44;94505.00;;;28.31;63.81
9277;BME280;4676;42.678;23.244;2023-06-22T10:54:12;94518.53;;;28.35;59.00
9277;BME280;4676;42.678;23.244;2023-06-22T10:56:39;94512.69;;;28.41;61.87
9277;BME280;4676;42.678;23.244;2023-06-22T10:59:05;94523.00;;;28.58;56.85
9277;BME280;4676;42.678;23.244;2023-06-22T11:01:32;94508.22;;;28.67;60.32
9277;BME280;4676;42.678;23.244;2023-06-22T11:03:59;94512.94;;;28.71;61.99
9277;BME280;4676;42.678;23.244;2023-06-22T11:06:26;94515.41;;;28.73;61.15
9277;BME280;4676;42.678;23.244;2023-06-22T11:08:52;94511.50;;;28.77;60.47
9277;BME280;4676;42.678;23.244;2023-06-22T11:11:20;94508.91;;;28.77;56.98
9277;BME280;4676;42.678;23.244;2023-06-22T11:13:47;94517.03;;;28.82;59.11
9277;BME280;4676;42.678;23.244;2023-06-22T11:16:14;94510.19;;;28.89;59.14
9277;BME280;4676;42.678;23.244;2023-06-22T11:18:41;94511.84;;;28.90;60.12
9277;BME280;4676;42.678;23.244;2023-06-22T11:21:08;94506.97;;;28.95;65.53
9277;BME280;4676;42.678;23.244;2023-06-22T11:23:34;94505.84;;;29.06;61.17
9277;BME280;4676;42.678;23.244;2023-06-22T11:26:01;94515.78;;;29.02;54.43
9277;BME280;4676;42.678;23.244;2023-06-22T11:28:29;94501.75;;;28.95;60.58
9277;BME280;4676;42.678;23.244;2023-06-22T11:30:56;94499.13;;;28.95;62.20
9277;BME280;4676;42.678;23.244;2023-06-22T11:33:22;94494.25;;;28.92;63.56
9277;BME280;4676;42.678;23.244;2023-06-22T11:35:49;94502.88;;;28.85;59.17
9277;BME280;4676;42.678;23.244;2023-06-22T11:38:16;94500.09;;;28.78;54.76
9277;BME280;4676;42.678;23.244;2023-06-22T11:40:43;94501.22;;;28.75;54.93
9277;BME280;4676;42.678;23.244;2023-06-22T11:43:10;94493.34;;;28.59;54.65
9277;BME280;4676;42.678;23.244;2023-06-22T11:45:38;94491.53;;;28.52;59.19
9277;BME280;4676;42.678;23.244;2023-06-22T11:48:05;94497.84;;;28.33;61.25
9277;BME280;4676;42.678;23.244;2023-06-22T11:50:32;94496.81;;;28.18;75.39
9277;BME280;4676;42.678;23.244;2023-06-22T11:53:01;94476.13;;;27.91;88.01
9277;BME280;4676;42.678;23.244;2023-06-22T11:55:27;94476.72;;;27.68;92.39
9277;BME280;4676;42.678;23.244;2023-06-22T11:57:55;94493.66;;;27.47;81.91
9277;BME280;4676;42.678;23.244;2023-06-22T12:00:24;94488.47;;;27.29;77.77
9277;BME280;4676;42.678;23.244;2023-06-22T12:02:52;94496.06;;;27.22;79.87
9277;BME280;4676;42.678;23.244;2023-06-22T12:05:19;94501.09;;;27.24;81.92
9277;BME280;4676;42.678;23.244;2023-06-22T12:07:46;94499.13;;;27.18;70.92
9277;BME280;4676;42.678;23.244;2023-06-22T12:10:13;94479.06;;;26.93;78.64
9277;BME280;4676;42.678;23.244;2023-06-22T12:12:41;94503.44;;;26.92;78.54
9277;BME280;4676;42.678;23.244;2023-06-22T12:15:09;94507.16;;;26.71;100.00
9277;BME280;4676;42.678;23.244;2023-06-22T12:17:36;94522.97;;;26.60;99.49
9277;BME280;4676;42.678;23.244;2023-06-22T12:20:06;94526.22;;;26.45;96.95
9277;BME280;4676;42.678;23.244;2023-06-22T12:22:33;94519.97;;;26.10;100.00
9277;BME280;4676;42.678;23.244;2023-06-22T12:25:00;94539.28;;;25.98;100.00
9277;BME280;4676;42.678;23.244;2023-06-22T12:27:27;94544.47;;;25.52;100.00
9277;BME280;4676;42.678;23.244;2023-06-22T12:29:56;94541.09;;;24.94;100.00
9277;BME280;4676;42.678;23.244;2023-06-22T12:32:22;94538.72;;;24.12;100.00
9277;BME280;4676;42.678;23.244;2023-06-22T12:34:49;94531.84;;;23.41;100.00
9277;BME280;4676;42.678;23.244;2023-06-22T12:37:17;94522.00;;;22.94;100.00
9277;BME280;4676;42.678;23.244;2023-06-22T12:39:44;94485.13;;;22.49;100.00
9277;BME280;4676;42.678;23.244;2023-06-22T12:42:11;94491.66;;;22.21;100.00
9277;BME280;4676;42.678;23.244;2023-06-22T12:44:38;94489.16;;;21.99;100.00
9277;BME280;4676;42.678;23.244;2023-06-22T12:47:05;94481.84;;;21.81;100.00
9277;BME280;4676;42.678;23.244;2023-06-22T12:49:33;94485.03;;;21.63;100.00
9277;BME280;4676;42.678;23.244;2023-06-22T12:52:00;94475.16;;;21.68;100.00
9277;BME280;4676;42.678;23.244;2023-06-22T12:54:28;94487.03;;;21.59;100.00
9277;BME280;4676;42.678;23.244;2023-06-22T12:56:56;94498.28;;;21.58;100.00
9277;BME280;4676;42.678;23.244;2023-06-22T12:59:23;94506.84;;;21.70;100.00
9277;BME280;4676;42.678;23.244;2023-06-22T13:01:49;94502.84;;;21.66;100.00
9277;BME280;4676;42.678;23.244;2023-06-22T13:04:16;94495.72;;;21.69;100.00
9277;BME280;4676;42.678;23.244;2023-06-22T13:06:43;94488.66;;;21.82;100.00